Time;durP1;ratioP1;P1;durP2;ratioP2;P2;SDS_P1;SDS_P2;PMS_P1;PMS_P2;Temp;Humidity;BMP_temperature;BMP_pressure;BME280_temperature;BME280_humidity;BME280_pressure;Samples;Min_cycle;Max_cycle;Signal;HPM_P1;HPM_P2
2021/07/28 00:01:52;;;;;;;7.78;5.82;;;;;;;17.96;74.01;101164.09;5036049;28;20095;-73
2021/07/28 00:04:18;;;;;;;9.00;6.00;;;;;;;17.94;74.16;101161.66;5021134;28;20663;-73
2021/07/28 00:06:44;;;;;;;11.45;6.93;;;;;;;17.92;74.21;101158.44;5029714;28;20029;-73
2021/07/28 00:09:10;;;;;;;10.38;6.20;;;;;;;17.89;74.54;101155.47;5037185;28;20030;-73
2021/07/28 00:11:35;;;;;;;11.93;6.70;;;;;;;17.89;74.46;101150.06;5037773;28;20051;-73
2021/07/28 00:14:01;;;;;;;9.38;6.05;;;;;;;17.88;74.35;101148.44;5036222;28;20054;-73
2021/07/28 00:16:26;;;;;;;12.27;6.28;;;;;;;17.84;74.47;101147.41;5038419;28;20021;-73
2021/07/28 00:19:08;;;;;;;10.32;6.30;;;;;;;17.83;74.12;101146.59;5020381;28;20312;-73
2021/07/28 00:24:18;;;;;;;9.30;6.50;;;;;;;17.76;74.19;101141.50;5029098;28;20029;-73
2021/07/28 00:26:44;;;;;;;10.35;6.80;;;;;;;17.74;74.53;101140.97;5038227;28;20052;-73
2021/07/28 00:29:09;;;;;;;9.45;6.65;;;;;;;17.72;74.43;101140.47;5038931;28;20041;-73
2021/07/28 00:31:35;;;;;;;9.20;7.18;;;;;;;17.71;74.84;101144.28;5039400;28;20359;-73
2021/07/28 00:34:00;;;;;;;12.73;6.65;;;;;;;17.70;75.26;101147.28;5035334;28;20043;-73
2021/07/28 00:36:26;;;;;;;11.43;7.22;;;;;;;17.71;75.06;101135.34;5019003;28;20505;-73
2021/07/28 00:38:52;;;;;;;10.73;7.55;;;;;;;17.71;74.80;101138.84;5035232;28;20028;-73
2021/07/28 00:41:17;;;;;;;10.55;6.78;;;;;;;17.73;75.06;101143.97;5035657;28;20075;-73
2021/07/28 00:43:43;;;;;;;11.18;7.15;;;;;;;17.72;75.06;101147.78;5032457;28;20035;-73
2021/07/28 00:46:08;;;;;;;9.63;7.13;;;;;;;17.71;75.62;101143.47;5030448;28;20068;-73
2021/07/28 00:48:35;;;;;;;11.02;7.28;;;;;;;17.74;75.29;101140.19;5037160;28;20052;-73
2021/07/28 00:51:01;;;;;;;8.60;6.50;;;;;;;17.76;75.56;101137.97;5031263;28;20099;-73
2021/07/28 00:53:27;;;;;;;10.98;7.18;;;;;;;17.75;75.69;101136.38;5032985;28;20028;-73
2021/07/28 00:55:53;;;;;;;10.75;7.28;;;;;;;17.72;75.72;101143.19;5028662;28;20455;-74
2021/07/28 00:58:20;;;;;;;19.70;7.22;;;;;;;17.68;75.78;101135.91;5035184;28;20268;-73
2021/07/28 01:00:46;;;;;;;15.32;7.72;;;;;;;17.65;75.67;101134.56;5022144;28;20407;-73
2021/07/28 01:03:13;;;;;;;12.98;7.65;;;;;;;17.60;75.73;101137.31;5032380;28;20032;-73
2021/07/28 01:05:40;;;;;;;11.65;7.53;;;;;;;17.56;75.82;101128.13;5033209;28;20398;-73
2021/07/28 01:08:06;;;;;;;13.52;7.18;;;;;;;17.58;76.02;101131.34;5031403;28;20386;-73
2021/07/28 01:10:33;;;;;;;10.90;7.15;;;;;;;17.60;76.11;101131.09;5013436;28;20456;-73
2021/07/28 01:12:58;;;;;;;15.73;7.28;;;;;;;17.60;76.20;101125.69;5019789;28;20399;-73
2021/07/28 01:18:12;;;;;;;12.63;8.07;;;;;;;17.61;76.45;101125.38;5035475;28;20098;-73
2021/07/28 01:20:44;;;;;;;11.13;7.70;;;;;;;17.60;76.46;101131.09;5038373;28;20063;-73
2021/07/28 01:23:20;;;;;;;10.32;7.78;;;;;;;17.63;76.56;101133.22;5032526;28;20063;-73
2021/07/28 01:25:47;;;;;;;10.68;7.25;;;;;;;17.61;76.49;101128.09;5019196;28;20032;-73
2021/07/28 01:28:13;;;;;;;11.73;7.57;;;;;;;17.53;76.59;101128.69;5019709;28;20032;-73
2021/07/28 01:30:39;;;;;;;11.70;6.88;;;;;;;17.50;76.99;101127.38;5036230;28;20095;-73
2021/07/28 01:33:06;;;;;;;9.02;7.28;;;;;;;17.49;77.03;101127.66;5020012;28;20092;-73
2021/07/28 01:35:35;;;;;;;13.32;8.45;;;;;;;17.44;77.11;101135.84;5020502;28;20025;-73
2021/07/28 01:38:01;;;;;;;11.93;7.72;;;;;;;17.42;77.27;101128.00;5030328;28;20065;-73
2021/07/28 01:40:27;;;;;;;12.02;7.07;;;;;;;17.47;77.23;101127.94;5032839;28;20029;-73
2021/07/28 01:42:52;;;;;;;13.35;7.32;;;;;;;17.44;77.17;101133.94;5026141;28;20025;-73
2021/07/28 01:45:18;;;;;;;12.93;7.00;;;;;;;17.41;77.33;101125.53;5032947;28;20025;-73
2021/07/28 01:47:44;;;;;;;9.90;6.85;;;;;;;17.45;77.40;101134.75;5030715;28;20048;-73
2021/07/28 01:50:10;;;;;;;13.35;6.90;;;;;;;17.43;77.19;101128.81;5031365;28;20120;-73
2021/07/28 01:52:41;;;;;;;10.10;6.68;;;;;;;17.40;77.23;101132.06;5038980;28;20028;-73
2021/07/28 01:55:07;;;;;;;8.02;6.40;;;;;;;17.39;77.23;101133.97;5037417;28;20025;-73
2021/07/28 01:57:33;;;;;;;7.38;6.60;;;;;;;17.37;77.27;101124.50;5038357;28;20498;-73
2021/07/28 02:00:00;;;;;;;9.98;6.75;;;;;;;17.29;77.17;101134.06;5040537;28;20053;-73
2021/07/28 02:02:31;;;;;;;8.80;6.60;;;;;;;17.22;77.22;101134.38;5023773;28;20039;-73
2021/07/28 02:05:04;;;;;;;13.15;7.45;;;;;;;17.15;77.08;101127.66;5033933;28;20501;-73
2021/07/28 02:07:30;;;;;;;8.52;6.60;;;;;;;17.11;77.20;101130.13;5032403;28;20438;-73
2021/07/28 02:09:56;;;;;;;13.98;7.50;;;;;;;17.02;77.46;101115.56;5034150;28;20533;-73
2021/07/28 02:12:22;;;;;;;13.27;7.72;;;;;;;16.98;77.25;101114.53;5033278;28;20064;-73
2021/07/28 02:14:48;;;;;;;14.15;8.38;;;;;;;16.91;77.62;101119.47;5023236;28;20032;-73
2021/07/28 02:17:14;;;;;;;12.05;7.93;;;;;;;16.90;77.94;101117.84;5034943;28;20963;-73
2021/07/28 02:19:40;;;;;;;38.95;8.77;;;;;;;16.87;78.30;101115.69;5032915;28;20384;-73
2021/07/28 02:22:05;;;;;;;47.60;9.50;;;;;;;16.85;78.69;101120.56;5036006;28;20027;-73
2021/07/28 02:24:31;;;;;;;20.70;9.02;;;;;;;16.83;78.85;101126.25;5034530;28;20030;-73
2021/07/28 02:26:56;;;;;;;15.07;8.32;;;;;;;16.75;79.67;101120.66;5037700;28;20028;-73
2021/07/28 02:29:21;;;;;;;13.65;7.57;;;;;;;16.79;79.18;101121.69;5036590;28;20085;-73
2021/07/28 02:31:47;;;;;;;11.50;7.88;;;;;;;16.78;79.21;101120.06;5034948;28;20025;-73
2021/07/28 02:34:13;;;;;;;10.32;7.28;;;;;;;16.77;79.11;101129.28;5020571;28;21487;-73
2021/07/28 02:36:38;;;;;;;13.70;7.57;;;;;;;16.74;79.21;101135.25;5033438;28;20175;-73
2021/07/28 02:39:04;;;;;;;11.73;7.80;;;;;;;16.74;78.82;101132.56;5032906;28;20028;-73
2021/07/28 02:41:29;;;;;;;11.45;8.18;;;;;;;16.71;79.37;101130.41;5034545;28;20126;-73
2021/07/28 02:43:55;;;;;;;14.32;9.15;;;;;;;16.72;79.20;101134.72;5020465;28;20479;-73
2021/07/28 02:46:21;;;;;;;12.05;8.20;;;;;;;16.69;79.41;101121.75;5018031;28;20047;-73
2021/07/28 02:48:48;;;;;;;13.45;7.85;;;;;;;16.62;79.48;101125.53;5019532;28;20249;-75
2021/07/28 02:51:13;;;;;;;10.20;7.78;;;;;;;16.59;79.19;101123.41;5018117;28;20031;-73
2021/07/28 02:53:38;;;;;;;10.55;7.68;;;;;;;16.58;79.12;101127.19;5023908;28;20025;-73
2021/07/28 02:56:04;;;;;;;15.50;7.43;;;;;;;16.54;79.42;101136.16;5033180;28;20032;-73
2021/07/28 02:58:30;;;;;;;11.32;8.13;;;;;;;16.53;79.54;101132.63;5031096;28;20018;-73
2021/07/28 03:00:55;;;;;;;10.57;7.75;;;;;;;16.54;79.47;101130.75;5034295;28;20581;-73
2021/07/28 03:03:22;;;;;;;10.93;7.78;;;;;;;16.54;79.63;101128.84;5019648;28;20151;-73
2021/07/28 03:05:47;;;;;;;9.40;6.97;;;;;;;16.55;79.80;101132.34;5031973;28;20040;-73
2021/07/28 03:08:12;;;;;;;10.82;7.80;;;;;;;16.52;79.47;101133.72;5031277;28;20612;-73
2021/07/28 03:10:38;;;;;;;11.48;8.07;;;;;;;16.49;79.53;101136.97;5036344;28;20052;-73
2021/07/28 03:13:03;;;;;;;10.80;7.50;;;;;;;16.47;79.73;101141.03;5022704;28;20030;-73
2021/07/28 03:15:29;;;;;;;8.98;6.97;;;;;;;16.43;79.71;101140.78;5032965;28;20070;-73
2021/07/28 03:17:54;;;;;;;11.55;8.40;;;;;;;16.22;81.79;101133.84;5035010;28;20183;-73
2021/07/28 03:20:20;;;;;;;11.95;8.10;;;;;;;16.28;81.04;101132.72;5033689;28;20029;-73
2021/07/28 03:22:45;;;;;;;9.57;7.68;;;;;;;16.36;80.65;101134.88;5031430;28;20483;-73
2021/07/28 03:25:11;;;;;;;14.27;8.35;;;;;;;16.38;80.58;101140.81;5034185;28;20075;-73
2021/07/28 03:27:37;;;;;;;12.40;7.88;;;;;;;16.40;80.21;101135.94;5037475;28;20035;-73
2021/07/28 03:30:02;;;;;;;12.70;8.18;;;;;;;16.37;79.95;101131.09;5037059;28;20036;-73
2021/07/28 03:32:28;;;;;;;11.23;7.38;;;;;;;16.36;79.79;101137.59;5035765;28;20074;-73
2021/07/28 03:34:53;;;;;;;9.13;6.70;;;;;;;16.37;79.66;101131.09;5034139;28;20029;-73
2021/07/28 03:37:19;;;;;;;18.02;7.47;;;;;;;16.43;79.37;101135.38;5019571;28;20018;-73
2021/07/28 03:39:45;;;;;;;42.65;11.00;;;;;;;16.49;79.28;101131.56;5035198;28;20056;-73
2021/07/28 03:42:10;;;;;;;31.92;9.70;;;;;;;16.53;79.13;101135.34;5020491;28;21886;-73
2021/07/28 03:44:36;;;;;;;21.70;8.82;;;;;;;16.58;79.21;101131.78;5037318;28;20048;-73
2021/07/28 03:47:01;;;;;;;20.48;8.30;;;;;;;16.66;78.98;101128.50;5031927;28;20622;-73
2021/07/28 03:49:27;;;;;;;15.68;8.30;;;;;;;16.73;78.74;101123.63;5035120;28;20080;-73
2021/07/28 03:51:52;;;;;;;13.48;7.50;;;;;;;16.82;78.56;101121.13;5019666;28;20028;-73
2021/07/28 03:54:18;;;;;;;10.95;7.43;;;;;;;16.89;78.21;101124.34;5034310;28;20025;-73
2021/07/28 03:56:43;;;;;;;11.82;7.70;;;;;;;16.95;78.06;101117.81;5033213;28;20037;-73
2021/07/28 03:59:08;;;;;;;11.68;7.78;;;;;;;17.00;78.05;101123.16;5033937;28;20037;-73
2021/07/28 04:01:34;;;;;;;12.18;8.05;;;;;;;17.02;78.26;101126.41;5033614;28;20135;-73
2021/07/28 04:03:59;;;;;;;13.18;8.05;;;;;;;17.07;78.26;101122.88;5033366;28;20025;-73
2021/07/28 04:06:25;;;;;;;10.48;7.93;;;;;;;17.14;78.11;101115.22;5035167;28;20033;-73
2021/07/28 04:08:50;;;;;;;9.52;7.00;;;;;;;17.23;77.98;101116.22;5031036;28;20060;-73
2021/07/28 04:11:16;;;;;;;9.98;8.55;;;;;;;17.31;78.09;101117.53;5031954;28;20022;-73
2021/07/28 04:13:42;;;;;;;10.55;7.95;;;;;;;17.41;77.82;101112.00;5031507;28;20025;-73
2021/07/28 04:16:08;;;;;;;12.30;8.77;;;;;;;17.47;77.79;101108.19;5031699;28;20052;-73
2021/07/28 04:18:33;;;;;;;14.15;8.27;;;;;;;17.58;77.67;101111.56;5035859;28;20033;-73
2021/07/28 04:20:59;;;;;;;8.68;7.68;;;;;;;17.65;77.49;101112.88;5020510;28;20052;-73
2021/07/28 04:23:24;;;;;;;10.02;8.27;;;;;;;17.60;78.31;101110.22;5020858;28;20160;-74
2021/07/28 04:25:50;;;;;;;11.52;8.15;;;;;;;17.58;78.31;101100.75;5032828;28;20037;-73
2021/07/28 04:28:15;;;;;;;10.02;8.15;;;;;;;17.71;77.84;101106.34;5030043;28;20560;-73
2021/07/28 04:30:41;;;;;;;11.85;7.88;;;;;;;17.66;77.99;101106.38;5023045;28;20025;-73
2021/07/28 04:33:06;;;;;;;12.27;8.50;;;;;;;17.75;77.44;101111.97;5016970;28;20275;-73
2021/07/28 04:35:31;;;;;;;11.63;8.30;;;;;;;17.78;77.12;101117.66;5015536;28;20029;-73
2021/07/28 04:37:57;;;;;;;11.10;7.72;;;;;;;17.80;77.28;101115.47;5033513;28;20021;-73
2021/07/28 04:40:22;;;;;;;11.10;8.15;;;;;;;17.86;77.21;101108.06;5018991;28;20044;-73
2021/07/28 04:42:48;;;;;;;9.27;8.18;;;;;;;17.95;76.76;101117.19;5033745;28;20107;-73
2021/07/28 04:45:14;;;;;;;12.50;8.50;;;;;;;17.95;76.70;101117.19;5031245;28;20044;-73
2021/07/28 04:47:40;;;;;;;10.82;8.10;;;;;;;18.06;76.06;101118.69;5031232;28;20105;-73
2021/07/28 04:50:06;;;;;;;10.73;8.43;;;;;;;18.08;76.30;101116.50;5031874;28;20051;-73
2021/07/28 04:52:31;;;;;;;12.45;9.13;;;;;;;18.20;75.92;101118.00;5030084;28;20029;-73
2021/07/28 04:54:57;;;;;;;9.40;7.80;;;;;;;18.08;76.22;101111.06;5031570;28;20536;-73
2021/07/28 04:57:22;;;;;;;9.40;7.78;;;;;;;18.17;75.95;101119.38;5034119;28;20146;-73
2021/07/28 04:59:48;;;;;;;9.98;8.45;;;;;;;18.30;75.54;101115.94;5031645;28;20032;-73
2021/07/28 05:02:13;;;;;;;9.40;8.15;;;;;;;18.43;74.97;101117.97;5032792;28;20037;-73
2021/07/28 05:04:39;;;;;;;9.98;8.27;;;;;;;18.48;75.09;101119.78;5029533;28;20021;-73
2021/07/28 05:07:04;;;;;;;14.13;8.70;;;;;;;18.50;75.14;101124.94;5033514;28;20132;-73
2021/07/28 05:09:30;;;;;;;11.50;9.43;;;;;;;18.56;74.95;101123.78;5031125;28;20020;-73
2021/07/28 05:11:55;;;;;;;11.55;8.27;;;;;;;18.64;74.92;101131.28;5030334;28;20508;-73
2021/07/28 05:14:21;;;;;;;10.93;8.15;;;;;;;18.68;74.81;101140.47;5030074;28;20052;-73
2021/07/28 05:16:46;;;;;;;11.88;8.80;;;;;;;18.68;75.11;101135.06;5018160;28;20033;-73
2021/07/28 05:19:12;;;;;;;9.50;8.30;;;;;;;18.83;74.40;101129.38;5031604;28;20074;-73
2021/07/28 05:21:37;;;;;;;10.02;8.40;;;;;;;19.04;73.85;101126.38;5033677;28;20070;-73
2021/07/28 05:24:03;;;;;;;10.60;8.02;;;;;;;19.24;72.96;101126.06;5034438;28;20128;-73
2021/07/28 05:26:29;;;;;;;9.70;8.38;;;;;;;19.28;73.02;101133.31;5036381;28;20033;-74
2021/07/28 05:28:54;;;;;;;10.40;8.32;;;;;;;19.37;72.56;101125.28;5022320;28;20021;-73
2021/07/28 05:31:20;;;;;;;13.45;8.73;;;;;;;19.43;72.84;101118.66;5033540;28;20477;-73
2021/07/28 05:33:45;;;;;;;12.60;8.85;;;;;;;19.42;72.93;101118.97;5037766;28;20033;-73
2021/07/28 05:36:11;;;;;;;10.02;8.57;;;;;;;19.51;72.61;101117.97;5033707;28;20033;-73
2021/07/28 05:38:36;;;;;;;12.20;9.13;;;;;;;19.57;72.88;101122.25;5035614;28;20032;-73
2021/07/28 05:41:03;;;;;;;10.40;7.47;;;;;;;19.51;72.83;101126.13;5036727;28;20024;-73
2021/07/28 05:43:28;;;;;;;10.10;8.05;;;;;;;19.35;73.19;101132.91;5036646;28;20045;-73
2021/07/28 05:45:54;;;;;;;10.50;7.82;;;;;;;19.36;72.88;101129.09;5037116;28;20033;-73
2021/07/28 05:48:19;;;;;;;12.38;7.32;;;;;;;19.29;73.21;101136.81;5022254;28;20041;-75
2021/07/28 05:50:45;;;;;;;9.40;7.25;;;;;;;19.06;74.50;101135.03;5036435;28;20079;-75
2021/07/28 05:53:10;;;;;;;9.93;6.78;;;;;;;19.20;73.15;101133.16;5036368;28;20534;-76
2021/07/28 05:55:36;;;;;;;10.50;7.30;;;;;;;19.32;72.28;101141.66;5039529;28;20031;-76
2021/07/28 05:58:02;;;;;;;8.63;7.30;;;;;;;19.40;71.75;101138.28;5026223;28;20029;-75
2021/07/28 06:00:27;;;;;;;10.55;7.68;;;;;;;19.50;71.62;101148.97;5024732;28;20360;-75
2021/07/28 06:02:52;;;;;;;9.57;7.32;;;;;;;19.51;71.76;101150.56;5036749;28;20119;-75
2021/07/28 06:05:18;;;;;;;16.17;7.40;;;;;;;19.57;71.41;101152.16;5024813;28;20044;-75
2021/07/28 06:07:43;;;;;;;8.85;7.57;;;;;;;19.63;70.96;101143.91;5032867;28;20021;-75
2021/07/28 06:10:09;;;;;;;12.75;7.43;;;;;;;19.56;71.06;101145.06;5033451;28;20051;-75
2021/07/28 06:12:35;;;;;;;11.63;7.43;;;;;;;19.48;71.62;101134.06;5034309;28;20476;-75
2021/07/28 06:15:00;;;;;;;10.02;8.05;;;;;;;19.33;72.38;101143.28;5021013;28;20510;-75
2021/07/28 06:17:26;;;;;;;9.85;7.90;;;;;;;19.29;73.14;101143.06;5031220;28;20036;-75
2021/07/28 06:19:51;;;;;;;10.23;7.50;;;;;;;19.13;73.70;101149.03;5035663;28;20032;-76
2021/07/28 06:22:17;;;;;;;11.63;7.25;;;;;;;19.37;72.76;101136.13;5032625;28;20164;-76
2021/07/28 06:24:42;;;;;;;8.80;7.38;;;;;;;19.61;71.74;101141.47;5035907;28;20021;-75
2021/07/28 06:27:08;;;;;;;10.23;7.30;;;;;;;19.53;72.20;101142.94;5034962;28;20727;-75
2021/07/28 06:29:34;;;;;;;8.80;7.18;;;;;;;19.61;71.99;101144.19;5037009;28;20017;-75
2021/07/28 06:32:00;;;;;;;12.07;7.38;;;;;;;19.65;72.00;101150.66;5028044;28;20047;-75
2021/07/28 06:34:25;;;;;;;11.73;7.55;;;;;;;19.68;71.89;101152.75;5025564;28;20032;-75
2021/07/28 06:36:51;;;;;;;10.50;7.97;;;;;;;19.58;72.95;101153.75;5033429;28;20039;-76
2021/07/28 06:39:16;;;;;;;10.45;6.95;;;;;;;19.74;72.25;101167.88;5038484;28;20048;-75
2021/07/28 06:41:42;;;;;;;13.65;7.80;;;;;;;19.88;71.41;101163.25;5035957;28;20098;-76
2021/07/28 06:44:07;;;;;;;11.18;6.63;;;;;;;20.01;70.94;101153.53;5026005;28;20036;-75
2021/07/28 06:46:33;;;;;;;11.48;6.93;;;;;;;20.16;70.17;101158.66;5024629;28;20449;-75
2021/07/28 06:48:58;;;;;;;12.93;6.72;;;;;;;20.20;69.78;101156.94;5039181;28;20074;-75
2021/07/28 06:51:24;;;;;;;13.23;7.18;;;;;;;20.36;68.93;101156.66;5036356;28;20090;-75
2021/07/28 06:53:49;;;;;;;11.88;6.63;;;;;;;20.29;69.57;101161.66;5019337;28;20021;-75
2021/07/28 06:56:15;;;;;;;9.98;6.97;;;;;;;20.59;69.13;101163.00;5034849;28;21133;-75
2021/07/28 06:58:41;;;;;;;11.20;7.32;;;;;;;20.74;68.98;101152.56;5038144;28;20032;-75
2021/07/28 07:01:07;;;;;;;11.13;7.47;;;;;;;20.85;68.60;101155.88;5036735;28;20975;-75
2021/07/28 07:03:35;;;;;;;10.07;7.07;;;;;;;20.89;68.20;101164.25;5038410;28;20483;-75
2021/07/28 07:06:00;;;;;;;11.77;7.22;;;;;;;20.86;68.33;101164.88;5040792;28;20031;-75
2021/07/28 07:08:25;;;;;;;9.65;7.13;;;;;;;20.71;68.81;101155.91;5035564;28;20018;-76
2021/07/28 07:10:52;;;;;;;8.32;6.80;;;;;;;20.69;68.84;101160.88;5036968;28;20037;-75
2021/07/28 07:13:18;;;;;;;8.50;6.78;;;;;;;20.63;68.51;101155.81;5031134;28;20483;-75
2021/07/28 07:15:43;;;;;;;10.00;7.40;;;;;;;20.81;68.41;101158.41;5035910;28;20036;-76
2021/07/28 07:18:09;;;;;;;9.50;6.63;;;;;;;20.97;68.00;101163.50;5033408;28;20161;-75
2021/07/28 07:20:34;;;;;;;8.80;6.50;;;;;;;21.12;67.69;101161.22;5039969;28;20059;-76
2021/07/28 07:23:00;;;;;;;8.85;6.75;;;;;;;21.23;67.03;101169.19;5038257;28;20083;-76
2021/07/28 07:25:25;;;;;;;8.60;7.18;;;;;;;21.01;67.73;101178.16;5035969;28;20143;-75
2021/07/28 07:27:50;;;;;;;8.82;6.22;;;;;;;21.03;67.65;101170.47;5032581;28;20498;-76
2021/07/28 07:30:16;;;;;;;10.75;7.00;;;;;;;20.77;67.50;101172.94;5039641;28;20387;-75
2021/07/28 07:32:42;;;;;;;10.57;7.15;;;;;;;20.81;67.81;101171.22;5036269;28;20148;-75
2021/07/28 07:35:08;;;;;;;9.68;6.78;;;;;;;21.05;67.17;101173.69;5038344;28;20147;-75
2021/07/28 07:37:33;;;;;;;11.15;6.20;;;;;;;21.31;66.15;101171.97;5043280;28;20028;-75
2021/07/28 07:39:59;;;;;;;9.80;6.30;;;;;;;21.35;66.13;101162.06;5020527;28;20055;-76
2021/07/28 07:42:24;;;;;;;10.10;6.70;;;;;;;21.63;65.12;101148.28;5031160;28;20108;-75
2021/07/28 07:44:50;;;;;;;9.95;6.30;;;;;;;22.01;63.91;101145.91;5039140;28;20025;-76
2021/07/28 07:47:18;;;;;;;9.27;7.07;;;;;;;22.19;63.19;101150.34;5028726;28;20038;-75
2021/07/28 07:49:43;;;;;;;8.30;6.47;;;;;;;22.45;62.40;101164.06;5020358;28;20029;-75
2021/07/28 07:52:09;;;;;;;7.93;5.78;;;;;;;22.65;61.49;101172.78;5021445;28;20082;-76
2021/07/28 07:54:34;;;;;;;10.27;5.70;;;;;;;22.65;61.28;101170.84;5032191;28;20033;-75
2021/07/28 07:57:00;;;;;;;10.15;5.85;;;;;;;22.83;60.33;101177.19;5032656;28;20025;-75
2021/07/28 07:59:26;;;;;;;6.43;4.55;;;;;;;22.92;58.52;101170.56;5037167;28;20067;-76
2021/07/28 08:01:51;;;;;;;7.72;4.75;;;;;;;22.98;57.08;101163.03;5022004;28;20394;-76
2021/07/28 08:04:20;;;;;;;7.50;5.05;;;;;;;23.07;56.58;101166.56;5033935;28;20021;-75
2021/07/28 08:06:46;;;;;;;5.63;4.38;;;;;;;23.60;55.36;101159.94;5035237;28;20059;-76
2021/07/28 08:09:12;;;;;;;7.57;5.10;;;;;;;24.31;54.04;101162.91;5034758;28;20053;-75
2021/07/28 08:11:38;;;;;;;7.95;4.60;;;;;;;24.51;53.04;101160.53;5033776;28;20706;-76
2021/07/28 08:14:03;;;;;;;6.30;4.80;;;;;;;23.96;54.28;101164.16;5030984;28;20042;-76
2021/07/28 08:16:29;;;;;;;6.53;4.80;;;;;;;23.92;53.39;101163.22;5033341;28;20040;-76
2021/07/28 08:18:54;;;;;;;5.20;4.30;;;;;;;23.91;52.35;101161.63;5015982;28;20063;-75
2021/07/28 08:21:20;;;;;;;6.47;4.72;;;;;;;23.79;51.68;101157.63;5030803;28;20033;-75
2021/07/28 08:23:47;;;;;;;8.35;4.43;;;;;;;23.65;52.60;101159.75;5022551;28;20033;-76
2021/07/28 08:26:13;;;;;;;6.65;4.95;;;;;;;23.69;54.87;101159.91;5031005;28;20108;-76
2021/07/28 08:28:40;;;;;;;8.45;4.40;;;;;;;23.83;52.33;101165.16;5033993;28;20029;-76
2021/07/28 08:31:05;;;;;;;8.32;4.22;;;;;;;23.75;52.33;101162.16;5031358;28;20025;-76
2021/07/28 08:33:31;;;;;;;8.13;4.30;;;;;;;23.28;51.95;101168.66;5030914;28;20087;-76
2021/07/28 08:35:58;;;;;;;4.75;4.03;;;;;;;23.20;53.39;101171.06;5035101;28;20045;-75
2021/07/28 08:38:25;;;;;;;4.82;4.13;;;;;;;23.14;52.57;101160.59;5028728;28;20029;-75
2021/07/28 08:41:00;;;;;;;5.03;4.30;;;;;;;23.06;53.08;101164.97;5016906;28;20029;-75
2021/07/28 08:43:28;;;;;;;7.50;4.68;;;;;;;22.64;53.95;101182.91;5034914;28;20029;-76
2021/07/28 08:45:57;;;;;;;6.45;4.32;;;;;;;22.80;53.56;101188.69;5031861;28;20036;-75
2021/07/28 08:48:23;;;;;;;18.02;5.28;;;;;;;23.08;51.04;101170.91;5021693;28;20025;-76
2021/07/28 08:50:49;;;;;;;8.70;4.30;;;;;;;23.38;51.41;101176.53;5021239;28;20518;-76
2021/07/28 08:53:14;;;;;;;6.20;4.72;;;;;;;23.46;50.12;101175.69;5021084;28;20068;-76
2021/07/28 08:55:40;;;;;;;10.30;4.57;;;;;;;23.59;50.70;101177.47;5020976;28;20116;-76
2021/07/28 08:58:13;;;;;;;8.25;4.70;;;;;;;23.15;51.67;101171.22;5020849;28;20026;-75
2021/07/28 09:00:46;;;;;;;7.72;4.93;;;;;;;23.05;52.28;101173.50;5006826;28;20388;-75
2021/07/28 09:03:13;;;;;;;6.30;4.45;;;;;;;22.92;52.31;101167.03;5024250;28;20550;-76
2021/07/28 09:05:52;;;;;;;7.10;4.28;;;;;;;22.97;52.10;101164.16;5006718;28;20030;-75
2021/07/28 09:08:23;;;;;;;5.75;4.55;;;;;;;22.98;52.54;101162.22;5009782;28;20039;-75
2021/07/28 09:11:06;;;;;;;6.40;4.20;;;;;;;23.19;52.33;101163.19;5024586;28;20037;-76
2021/07/28 09:13:38;;;;;;;8.90;4.65;;;;;;;23.79;50.36;101170.50;5007737;28;20051;-75
2021/07/28 09:16:09;;;;;;;6.03;3.80;;;;;;;23.61;50.59;101164.28;5024392;28;20655;-75
2021/07/28 09:18:35;;;;;;;8.55;4.20;;;;;;;23.52;51.43;101166.22;5026668;28;20576;-75
2021/07/28 09:21:03;;;;;;;6.22;3.63;;;;;;;24.16;49.92;101163.44;5009674;28;20029;-76
2021/07/28 09:23:38;;;;;;;5.22;3.58;;;;;;;24.13;48.85;101157.81;5025794;28;20368;-75
2021/07/28 09:26:24;;;;;;;4.28;3.58;;;;;;;23.44;47.92;101161.53;5023569;28;20474;-76
2021/07/28 09:29:02;;;;;;;6.25;3.97;;;;;;;23.22;50.00;101165.28;5007286;28;20060;-76
2021/07/28 09:31:47;;;;;;;5.57;4.15;;;;;;;23.24;50.24;101173.97;5025157;28;20052;-75
2021/07/28 09:34:20;;;;;;;6.47;4.13;;;;;;;22.99;51.23;101166.59;5009312;28;20029;-75
2021/07/28 09:36:47;;;;;;;5.10;3.92;;;;;;;23.30;50.71;101167.19;5026741;28;20055;-75
2021/07/28 09:39:46;;;;;;;7.20;4.72;;;;;;;23.15;52.71;101173.94;5023425;28;20492;-76
2021/07/28 09:42:25;;;;;;;5.47;4.20;;;;;;;23.45;50.40;101172.16;5009939;28;20110;-75
2021/07/28 09:44:55;;;;;;;6.30;4.28;;;;;;;23.40;50.79;101168.78;5023014;28;20047;-75
2021/07/28 09:47:25;;;;;;;6.95;4.35;;;;;;;23.43;50.03;101165.41;5006066;28;20122;-75
2021/07/28 09:50:11;;;;;;;6.15;4.25;;;;;;;23.24;50.49;101156.75;5024374;28;20368;-76
2021/07/28 09:52:37;;;;;;;6.45;4.00;;;;;;;23.92;49.44;101157.75;5010095;28;20056;-75
2021/07/28 09:55:28;;;;;;;7.97;4.75;;;;;;;24.18;48.53;101163.09;5008595;28;20029;-76
2021/07/28 09:57:59;;;;;;;5.45;4.28;;;;;;;24.82;49.78;101154.69;5023415;28;20406;-76
2021/07/28 10:00:27;;;;;;;6.20;4.55;;;;;;;25.25;47.43;101144.16;5022898;28;20470;-76
2021/07/28 10:02:58;;;;;;;5.88;4.32;;;;;;;26.01;47.74;101144.78;5023514;28;20040;-75
2021/07/28 10:05:25;;;;;;;6.63;3.90;;;;;;;26.57;46.63;101143.09;5004204;28;20108;-75
2021/07/28 10:07:56;;;;;;;6.13;4.43;;;;;;;27.09;45.38;101134.00;5025252;28;20152;-76
2021/07/28 10:10:22;;;;;;;5.55;4.28;;;;;;;26.42;44.62;101143.81;5021366;28;20124;-76
2021/07/28 10:12:49;;;;;;;5.70;4.43;;;;;;;26.83;43.81;101139.91;5023922;28;20039;-76
2021/07/28 10:15:15;;;;;;;5.57;4.20;;;;;;;26.96;43.65;101138.75;5007396;28;20576;-76
2021/07/28 10:17:42;;;;;;;6.50;4.63;;;;;;;26.67;44.16;101139.84;5025260;28;20035;-76
2021/07/28 10:20:12;;;;;;;7.63;4.22;;;;;;;26.70;45.10;101139.16;5020767;28;20036;-76
2021/07/28 10:22:38;;;;;;;6.03;4.53;;;;;;;26.77;45.01;101138.56;5021305;28;20033;-76
2021/07/28 10:25:08;;;;;;;5.40;4.32;;;;;;;27.14;44.00;101135.72;5023777;28;20681;-76
2021/07/28 10:27:42;;;;;;;6.75;4.88;;;;;;;27.30;43.21;101137.34;5024573;28;21724;-76
2021/07/28 10:30:13;;;;;;;4.85;3.50;;;;;;;27.25;40.76;101139.53;5003941;28;20029;-76
2021/07/28 10:32:39;;;;;;;6.82;3.83;;;;;;;27.28;40.03;101138.84;5021576;28;20036;-75
2021/07/28 10:35:34;;;;;;;6.22;3.60;;;;;;;27.73;39.82;101133.00;5022883;28;20037;-76
2021/07/28 10:38:01;;;;;;;7.53;3.88;;;;;;;27.39;39.78;101137.19;5000007;28;20600;-76
2021/07/28 10:40:27;;;;;;;4.00;3.30;;;;;;;26.98;41.24;101135.63;5008036;28;20037;-75
2021/07/28 10:42:55;;;;;;;5.60;3.30;;;;;;;27.57;39.95;101135.69;5005687;28;20071;-76
2021/07/28 10:45:22;;;;;;;3.85;3.45;;;;;;;27.02;41.23;101136.56;5020574;28;20036;-76
2021/07/28 10:47:51;;;;;;;5.15;3.50;;;;;;;26.29;41.79;101131.97;5019178;28;20125;-76
2021/07/28 10:50:25;;;;;;;4.70;3.53;;;;;;;25.87;44.03;101123.19;5017073;28;20032;-76
2021/07/28 10:52:54;;;;;;;;;;;;;;;26.23;41.84;101121.59;5015671;28;20059;-77
2021/07/28 10:55:29;;;;;;;6.95;3.42;;;;;;;26.52;42.40;101126.81;5019733;28;19971;-76
2021/07/28 10:58:10;;;;;;;5.57;3.70;;;;;;;27.39;41.64;101118.72;5019794;28;20028;-76
2021/07/28 11:00:39;;;;;;;3.83;3.22;;;;;;;28.06;39.82;101112.53;5023400;28;20285;-76
2021/07/28 11:03:07;;;;;;;4.53;3.50;;;;;;;28.46;39.24;101104.81;5006235;28;20037;-76
2021/07/28 11:05:40;;;;;;;4.95;3.30;;;;;;;28.38;38.45;101099.53;5018718;28;20037;-77
2021/07/28 11:08:05;;;;;;;3.67;3.13;;;;;;;28.48;37.83;101098.97;5001301;28;20029;-77
2021/07/28 11:10:41;;;;;;;4.55;3.47;;;;;;;27.86;38.98;101101.47;5019337;28;20462;-77
2021/07/28 11:13:14;;;;;;;5.40;3.38;;;;;;;27.79;40.68;101106.78;5003514;28;20089;-76
2021/07/28 11:15:41;;;;;;;3.67;3.30;;;;;;;28.25;39.71;101101.56;5019208;28;20258;-76
2021/07/28 11:18:07;;;;;;;5.28;3.70;;;;;;;28.26;39.40;101108.72;5015694;28;20108;-77
2021/07/28 11:20:39;;;;;;;5.30;3.80;;;;;;;28.49;38.85;101101.34;5020989;28;20599;-77
2021/07/28 11:23:27;;;;;;;4.90;3.38;;;;;;;28.19;38.60;101112.09;5017342;28;20022;-77
2021/07/28 11:26:00;;;;;;;5.50;3.90;;;;;;;27.93;39.78;101112.63;5022516;28;20032;-76
2021/07/28 11:28:26;;;;;;;4.88;3.30;;;;;;;28.17;40.32;101102.56;5015269;28;20025;-77